createdAt,value
2018-12-07T00:02:04.878Z,100.00
2018-12-07T00:04:33.211Z,100.00
2018-12-07T00:07:01.569Z,100.00
2018-12-07T00:09:30.001Z,100.00
2018-12-07T00:11:58.332Z,100.00
2018-12-07T00:14:26.740Z,99.52
2018-12-07T00:16:55.065Z,100.00
2018-12-07T00:19:23.546Z,99.62
2018-12-07T00:21:51.873Z,99.26
2018-12-07T00:24:20.180Z,99.27
2018-12-07T00:26:48.518Z,99.61
2018-12-07T00:29:16.841Z,99.61
2018-12-07T00:31:45.163Z,99.12
2018-12-07T00:34:13.525Z,99.59
2018-12-07T00:36:41.911Z,99.73
2018-12-07T00:39:10.221Z,99.56
2018-12-07T00:41:38.551Z,98.75
2018-12-07T00:44:06.869Z,99.14
2018-12-07T00:46:35.196Z,98.61
2018-12-07T00:49:03.503Z,99.09
2018-12-07T00:51:31.835Z,98.74
2018-12-07T00:54:00.212Z,98.32
2018-12-07T00:56:28.540Z,98.89
2018-12-07T00:58:56.848Z,98.11
2018-12-07T01:01:25.303Z,98.16
2018-12-07T01:03:53.711Z,98.28
2018-12-07T01:06:22.040Z,98.45
2018-12-07T01:08:50.339Z,98.09
2018-12-07T01:11:18.672Z,97.88
2018-12-07T01:13:46.987Z,98.07
2018-12-07T01:16:15.320Z,98.17
2018-12-07T01:18:43.629Z,98.21
2018-12-07T01:21:11.960Z,97.62
2018-12-07T01:23:40.332Z,97.32
2018-12-07T01:26:08.763Z,98.01
2018-12-07T01:28:37.089Z,97.21
2018-12-07T01:31:05.468Z,97.58
2018-12-07T01:33:33.784Z,97.81
2018-12-07T01:36:02.096Z,97.31
2018-12-07T01:38:30.425Z,97.27
2018-12-07T01:40:58.743Z,96.71
2018-12-07T01:43:27.060Z,97.40
2018-12-07T01:45:55.379Z,97.05
2018-12-07T01:48:23.709Z,96.92
2018-12-07T01:50:52.017Z,96.89
2018-12-07T01:53:20.350Z,96.60
2018-12-07T01:55:48.653Z,96.68
2018-12-07T01:58:16.987Z,96.47
2018-12-07T02:00:45.299Z,97.37
2018-12-07T02:03:13.649Z,97.07
2018-12-07T02:05:41.970Z,96.95
2018-12-07T02:08:10.309Z,97.61
2018-12-07T02:10:38.624Z,97.63
2018-12-07T02:13:06.969Z,97.67
2018-12-07T02:15:35.265Z,97.36
2018-12-07T02:18:03.604Z,97.58
2018-12-07T02:20:31.920Z,97.36
2018-12-07T02:23:00.235Z,97.51
2018-12-07T02:25:28.545Z,98.21
2018-12-07T02:30:42.136Z,97.69
2018-12-07T02:33:10.555Z,97.59
2018-12-07T02:35:38.995Z,97.72
2018-12-07T02:38:07.322Z,97.53
2018-12-07T02:40:35.641Z,98.07
2018-12-07T02:43:03.970Z,98.47
2018-12-07T02:45:31.844Z,98.16
2018-12-07T02:48:00.171Z,98.46
2018-12-07T02:50:28.538Z,98.83
2018-12-07T02:52:56.843Z,99.29
2018-12-07T02:55:24.702Z,98.95
2018-12-07T02:57:53.160Z,99.64
2018-12-07T03:00:21.538Z,99.97
2018-12-07T03:02:49.611Z,99.86
2018-12-07T03:05:17.512Z,100.00
2018-12-07T03:07:45.376Z,100.00
2018-12-07T03:10:13.254Z,100.00
2018-12-07T03:12:41.600Z,100.00
2018-12-07T03:15:09.560Z,100.00
2018-12-07T03:17:37.880Z,100.00
2018-12-07T03:20:06.156Z,100.00
2018-12-07T03:22:34.811Z,100.00
2018-12-07T03:25:03.399Z,100.00
2018-12-07T03:27:31.864Z,100.00
2018-12-07T03:30:00.258Z,100.00
2018-12-07T03:32:28.690Z,100.00
2018-12-07T03:34:57.100Z,100.00
2018-12-07T03:37:25.421Z,100.00
2018-12-07T03:39:53.765Z,100.00
2018-12-07T03:42:22.090Z,100.00
2018-12-07T03:44:50.424Z,100.00
2018-12-07T03:47:18.751Z,100.00
2018-12-07T03:49:47.164Z,100.00
2018-12-07T03:52:15.470Z,100.00
2018-12-07T03:54:43.799Z,100.00
2018-12-07T03:57:12.315Z,100.00
2018-12-07T03:59:40.697Z,100.00
2018-12-07T04:02:09.238Z,100.00
2018-12-07T04:04:37.576Z,100.00
2018-12-07T04:07:06.078Z,100.00
2018-12-07T04:09:34.412Z,100.00
2018-12-07T04:12:02.999Z,100.00
2018-12-07T04:14:31.320Z,100.00
2018-12-07T04:16:59.765Z,100.00
2018-12-07T04:19:29.101Z,100.00
2018-12-07T04:21:57.430Z,100.00
2018-12-07T04:24:25.922Z,100.00
2018-12-07T04:26:54.483Z,100.00
2018-12-07T04:29:22.920Z,100.00
2018-12-07T04:31:51.292Z,100.00
2018-12-07T04:34:19.764Z,100.00
2018-12-07T04:36:48.115Z,100.00
2018-12-07T04:39:16.596Z,100.00
2018-12-07T04:41:44.980Z,100.00
2018-12-07T04:44:13.368Z,100.00
2018-12-07T04:46:42.037Z,100.00
2018-12-07T04:49:10.428Z,100.00
2018-12-07T04:51:38.803Z,100.00
2018-12-07T04:54:07.128Z,100.00
2018-12-07T04:56:35.561Z,100.00
2018-12-07T04:59:03.951Z,100.00
2018-12-07T05:01:32.350Z,100.00
2018-12-07T05:04:00.706Z,100.00
2018-12-07T05:06:29.131Z,100.00
2018-12-07T05:08:57.561Z,100.00
2018-12-07T05:11:25.903Z,100.00
2018-12-07T05:13:54.322Z,100.00
2018-12-07T05:16:22.659Z,100.00
2018-12-07T05:18:51.171Z,100.00
2018-12-07T05:21:19.488Z,100.00
2018-12-07T05:23:47.878Z,100.00
2018-12-07T05:26:16.210Z,100.00
2018-12-07T05:28:44.520Z,100.00
2018-12-07T05:31:12.847Z,100.00
2018-12-07T05:33:41.194Z,100.00
2018-12-07T05:36:09.550Z,100.00
2018-12-07T05:38:37.871Z,100.00
2018-12-07T05:41:06.226Z,100.00
2018-12-07T05:43:34.678Z,100.00
2018-12-07T05:46:03.003Z,100.00
2018-12-07T05:48:31.444Z,100.00
2018-12-07T05:50:59.776Z,100.00
2018-12-07T05:53:28.189Z,100.00
2018-12-07T05:55:56.636Z,100.00
2018-12-07T05:58:24.980Z,100.00
2018-12-07T06:00:53.340Z,100.00
2018-12-07T06:03:21.816Z,100.00
2018-12-07T06:05:50.139Z,100.00
2018-12-07T06:08:18.444Z,100.00
2018-12-07T06:10:46.899Z,100.00
2018-12-07T06:13:15.231Z,100.00
2018-12-07T06:15:43.575Z,100.00
2018-12-07T06:18:11.919Z,100.00
2018-12-07T06:20:40.240Z,100.00
2018-12-07T06:23:08.561Z,100.00
2018-12-07T06:25:37.280Z,100.00
2018-12-07T06:28:05.625Z,100.00
2018-12-07T06:30:33.971Z,100.00
2018-12-07T06:33:02.334Z,100.00
2018-12-07T06:35:30.656Z,100.00
2018-12-07T06:37:58.987Z,100.00
2018-12-07T06:40:27.328Z,100.00
2018-12-07T06:42:55.647Z,100.00
2018-12-07T06:45:23.956Z,100.00
2018-12-07T06:47:52.307Z,100.00
2018-12-07T06:50:20.652Z,100.00
2018-12-07T06:52:48.974Z,100.00
2018-12-07T06:55:17.312Z,100.00
2018-12-07T06:57:45.633Z,100.00
2018-12-07T07:00:14.088Z,100.00
2018-12-07T07:02:42.429Z,100.00
2018-12-07T07:05:10.896Z,100.00
2018-12-07T07:07:39.229Z,100.00
2018-12-07T07:10:07.927Z,100.00
2018-12-07T07:12:36.258Z,100.00
2018-12-07T07:15:05.108Z,100.00
2018-12-07T07:17:33.512Z,100.00
2018-12-07T07:20:01.865Z,100.00
2018-12-07T07:22:30.189Z,100.00
2018-12-07T07:24:58.717Z,100.00
2018-12-07T07:27:27.047Z,100.00
2018-12-07T07:29:55.372Z,100.00
2018-12-07T07:32:23.858Z,100.00
2018-12-07T07:34:52.175Z,100.00
2018-12-07T07:37:20.521Z,100.00
2018-12-07T07:39:49.098Z,100.00
2018-12-07T07:42:17.420Z,100.00
2018-12-07T07:44:45.858Z,100.00
2018-12-07T07:47:14.183Z,100.00
2018-12-07T07:49:42.535Z,100.00
2018-12-07T07:52:10.858Z,100.00
2018-12-07T07:54:39.359Z,100.00
2018-12-07T07:57:07.689Z,100.00
2018-12-07T07:59:36.007Z,100.00
2018-12-07T08:02:04.512Z,100.00
2018-12-07T08:04:32.829Z,100.00
2018-12-07T08:07:01.149Z,100.00
2018-12-07T08:09:29.605Z,100.00
2018-12-07T08:11:57.932Z,100.00
2018-12-07T08:14:26.260Z,100.00
2018-12-07T08:16:54.589Z,100.00
2018-12-07T08:19:22.916Z,100.00
2018-12-07T08:21:51.235Z,100.00
2018-12-07T08:24:19.704Z,100.00
2018-12-07T08:26:48.031Z,100.00
2018-12-07T08:29:16.348Z,100.00
2018-12-07T08:31:44.952Z,100.00
2018-12-07T08:34:13.277Z,100.00
2018-12-07T08:36:41.591Z,100.00
2018-12-07T08:39:10.372Z,100.00
2018-12-07T08:41:38.696Z,100.00
2018-12-07T08:44:07.108Z,100.00
2018-12-07T08:46:35.472Z,100.00
2018-12-07T08:49:03.852Z,100.00
2018-12-07T08:51:32.168Z,100.00
2018-12-07T08:54:00.865Z,100.00
2018-12-07T08:56:30.464Z,100.00
2018-12-07T08:58:58.851Z,100.00
2018-12-07T09:01:27.207Z,100.00
2018-12-07T09:03:55.605Z,100.00
2018-12-07T09:06:23.993Z,100.00
2018-12-07T09:08:52.471Z,100.00
2018-12-07T09:11:20.824Z,100.00
2018-12-07T09:13:49.129Z,100.00
2018-12-07T09:16:17.484Z,100.00
2018-12-07T09:18:45.866Z,100.00
2018-12-07T09:21:14.178Z,100.00
2018-12-07T09:23:49.386Z,100.00
2018-12-07T09:26:13.065Z,100.00
2018-12-07T09:28:41.389Z,100.00
2018-12-07T09:31:09.720Z,100.00
2018-12-07T09:33:38.158Z,100.00
2018-12-07T09:36:06.475Z,100.00
2018-12-07T09:38:34.830Z,100.00
2018-12-07T09:41:03.191Z,100.00
2018-12-07T09:43:31.522Z,100.00
2018-12-07T09:46:00.041Z,100.00
2018-12-07T09:48:28.355Z,100.00
2018-12-07T09:50:56.686Z,100.00
2018-12-07T09:53:25.235Z,100.00
2018-12-07T09:55:53.649Z,100.00
2018-12-07T09:58:21.962Z,100.00
2018-12-07T10:00:50.481Z,100.00
2018-12-07T10:03:18.808Z,100.00
2018-12-07T10:05:47.135Z,100.00
2018-12-07T10:08:15.468Z,100.00
2018-12-07T10:10:43.792Z,100.00
2018-12-07T10:13:12.120Z,100.00
2018-12-07T10:15:40.651Z,100.00
2018-12-07T10:18:08.968Z,100.00
2018-12-07T10:20:37.283Z,100.00
2018-12-07T10:23:05.726Z,100.00
2018-12-07T10:25:34.044Z,100.00
2018-12-07T10:28:02.356Z,100.00
2018-12-07T10:30:30.687Z,100.00
2018-12-07T10:32:59.003Z,100.00
2018-12-07T10:35:27.328Z,100.00
2018-12-07T10:37:55.668Z,100.00
2018-12-07T10:40:23.995Z,99.92
2018-12-07T10:42:52.289Z,99.96
2018-12-07T10:45:20.630Z,99.26
2018-12-07T10:47:50.435Z,99.26
2018-12-07T10:50:19.009Z,99.24
2018-12-07T10:52:47.337Z,99.00
2018-12-07T10:55:15.649Z,98.71
2018-12-07T10:57:43.968Z,98.33
2018-12-07T11:00:14.944Z,98.63
2018-12-07T11:02:48.939Z,98.00
2018-12-07T11:05:22.969Z,98.23
2018-12-07T11:07:56.936Z,98.20
2018-12-07T11:10:30.757Z,97.74
2018-12-07T11:13:04.491Z,97.70
2018-12-07T11:15:38.352Z,96.62
2018-12-07T11:18:12.188Z,96.83
2018-12-07T11:20:45.972Z,96.14
2018-12-07T11:26:21.839Z,95.49
2018-12-07T11:28:55.781Z,95.11
2018-12-07T11:31:29.552Z,94.86
2018-12-07T11:33:59.516Z,94.85
2018-12-07T11:36:27.828Z,94.81
2018-12-07T11:38:56.304Z,94.48
2018-12-07T11:41:24.637Z,94.98
2018-12-07T11:43:53.056Z,94.51
2018-12-07T11:46:21.448Z,94.66
2018-12-07T11:48:49.791Z,95.41
2018-12-07T11:51:18.176Z,95.00
2018-12-07T11:53:46.544Z,95.49
2018-12-07T11:56:14.928Z,95.48
2018-12-07T11:58:43.249Z,96.01
2018-12-07T12:01:11.576Z,96.34
2018-12-07T12:03:39.930Z,96.14
2018-12-07T12:06:08.342Z,96.36
2018-12-07T12:08:36.687Z,96.83
2018-12-07T12:11:04.991Z,97.00
2018-12-07T12:13:33.383Z,97.18
2018-12-07T12:16:01.757Z,97.86
2018-12-07T12:18:30.125Z,98.15
2018-12-07T12:20:58.426Z,97.78
2018-12-07T12:26:11.859Z,98.07
2018-12-07T12:28:40.346Z,98.35
2018-12-07T12:31:08.647Z,99.09
2018-12-07T12:33:36.967Z,99.10
2018-12-07T12:36:05.476Z,98.73
2018-12-07T12:38:33.789Z,99.27
2018-12-07T12:41:02.094Z,99.54
2018-12-07T12:43:30.475Z,100.00
2018-12-07T12:45:58.785Z,100.00
2018-12-07T12:48:27.168Z,100.00
2018-12-07T12:50:57.552Z,100.00
2018-12-07T12:53:25.912Z,100.00
2018-12-07T12:55:54.472Z,100.00
2018-12-07T12:58:22.885Z,100.00
2018-12-07T13:00:51.220Z,100.00
2018-12-07T13:03:19.535Z,100.00
2018-12-07T13:05:47.976Z,100.00
2018-12-07T13:08:16.292Z,100.00
2018-12-07T13:10:44.612Z,100.00
2018-12-07T13:13:12.950Z,100.00
2018-12-07T13:15:41.260Z,100.00
2018-12-07T13:18:09.568Z,100.00
2018-12-07T13:20:38.155Z,100.00
2018-12-07T13:23:06.491Z,100.00
2018-12-07T13:25:34.793Z,100.00
2018-12-07T13:28:03.213Z,100.00
2018-12-07T13:30:31.536Z,100.00
2018-12-07T13:32:59.871Z,100.00
2018-12-07T13:35:28.435Z,100.00
2018-12-07T13:37:56.774Z,100.00
2018-12-07T13:40:25.173Z,100.00
2018-12-07T13:42:53.625Z,100.00
2018-12-07T13:45:22.281Z,100.00
2018-12-07T13:47:50.699Z,100.00
2018-12-07T13:50:24.762Z,100.00
2018-12-07T13:52:53.198Z,100.00
2018-12-07T13:55:21.290Z,100.00
2018-12-07T13:57:49.792Z,100.00
2018-12-07T14:00:18.303Z,100.00
2018-12-07T14:02:46.377Z,100.00
2018-12-07T14:05:15.348Z,100.00
2018-12-07T14:07:43.955Z,100.00
2018-12-07T14:10:12.508Z,100.00
2018-12-07T14:12:40.483Z,100.00
2018-12-07T14:15:09.678Z,100.00
2018-12-07T14:17:38.042Z,100.00
2018-12-07T14:20:08.534Z,100.00
2018-12-07T14:22:37.276Z,100.00
2018-12-07T14:25:06.018Z,100.00
2018-12-07T14:27:34.261Z,100.00
2018-12-07T14:30:03.091Z,100.00
2018-12-07T14:32:31.121Z,100.00
2018-12-07T14:34:59.313Z,100.00
2018-12-07T14:37:27.883Z,100.00
2018-12-07T14:39:56.332Z,100.00
2018-12-07T14:42:24.367Z,100.00
2018-12-07T14:44:52.320Z,100.00
2018-12-07T14:47:20.752Z,100.00
2018-12-07T14:49:49.156Z,100.00
2018-12-07T14:52:17.560Z,100.00
2018-12-07T14:54:45.940Z,100.00
2018-12-07T14:57:14.738Z,100.00
2018-12-07T14:59:42.857Z,100.00
2018-12-07T15:02:11.057Z,100.00
2018-12-07T15:04:39.360Z,100.00
2018-12-07T15:07:07.435Z,100.00
2018-12-07T15:09:35.842Z,100.00
2018-12-07T15:12:04.012Z,100.00
2018-12-07T15:14:32.666Z,100.00
2018-12-07T15:17:01.141Z,100.00
2018-12-07T15:19:29.759Z,100.00
2018-12-07T15:21:58.325Z,100.00
2018-12-07T15:24:26.865Z,100.00
2018-12-07T15:26:55.336Z,100.00
2018-12-07T15:29:23.721Z,100.00
2018-12-07T15:31:52.159Z,100.00
2018-12-07T15:34:20.677Z,100.00
2018-12-07T15:36:49.087Z,100.00
2018-12-07T15:39:17.887Z,100.00
2018-12-07T15:41:46.640Z,100.00
2018-12-07T15:44:15.165Z,100.00
2018-12-07T15:46:43.673Z,100.00
2018-12-07T15:49:12.014Z,100.00
2018-12-07T15:54:28.668Z,100.00
2018-12-07T15:56:57.738Z,100.00
2018-12-07T15:59:34.261Z,100.00
2018-12-07T16:01:56.610Z,100.00
2018-12-07T16:04:24.988Z,100.00
2018-12-07T16:06:53.355Z,100.00
2018-12-07T16:09:21.824Z,100.00
2018-12-07T16:11:50.494Z,100.00
2018-12-07T16:14:19.171Z,100.00
2018-12-07T16:16:47.740Z,100.00
2018-12-07T16:19:16.126Z,100.00
2018-12-07T16:21:44.510Z,100.00
2018-12-07T16:24:12.898Z,100.00
2018-12-07T16:26:41.465Z,100.00
2018-12-07T16:29:09.951Z,100.00
2018-12-07T16:31:38.588Z,100.00
2018-12-07T16:34:07.044Z,100.00
2018-12-07T16:36:35.448Z,100.00
2018-12-07T16:39:06.814Z,100.00
2018-12-07T16:41:35.386Z,100.00
2018-12-07T16:44:04.150Z,100.00
2018-12-07T16:46:32.587Z,100.00
2018-12-07T16:49:00.978Z,100.00
2018-12-07T16:51:29.441Z,100.00
2018-12-07T16:53:58.234Z,100.00
2018-12-07T16:56:26.944Z,100.00
2018-12-07T16:58:55.437Z,100.00
2018-12-07T17:01:25.432Z,100.00
2018-12-07T17:03:54.532Z,100.00
2018-12-07T17:06:22.988Z,100.00
2018-12-07T17:08:51.924Z,100.00
2018-12-07T17:11:19.941Z,100.00
2018-12-07T17:13:48.050Z,100.00
2018-12-07T17:16:16.695Z,100.00
2018-12-07T17:18:45.071Z,100.00
2018-12-07T17:21:13.275Z,100.00
2018-12-07T17:23:41.893Z,100.00
2018-12-07T17:26:10.573Z,100.00
2018-12-07T17:28:39.179Z,100.00
2018-12-07T17:31:08.257Z,100.00
2018-12-07T17:33:36.631Z,100.00
2018-12-07T17:36:05.126Z,100.00
2018-12-07T17:38:33.559Z,100.00
2018-12-07T17:41:02.108Z,100.00
2018-12-07T17:43:30.010Z,100.00
2018-12-07T17:45:58.146Z,100.00
2018-12-07T17:48:26.349Z,100.00
2018-12-07T17:50:55.284Z,100.00
2018-12-07T17:53:23.340Z,100.00
2018-12-07T17:55:51.735Z,100.00
2018-12-07T17:58:19.823Z,100.00
2018-12-07T18:00:48.492Z,100.00
2018-12-07T18:03:16.885Z,100.00
2018-12-07T18:05:45.268Z,100.00
2018-12-07T18:08:13.880Z,100.00
2018-12-07T18:10:41.997Z,100.00
2018-12-07T18:13:10.638Z,100.00
2018-12-07T18:15:39.201Z,100.00
2018-12-07T18:18:07.198Z,100.00
2018-12-07T18:20:35.698Z,100.00
2018-12-07T18:23:05.566Z,100.00
2018-12-07T18:25:34.318Z,100.00
2018-12-07T18:28:03.475Z,100.00
2018-12-07T18:30:31.579Z,100.00
2018-12-07T18:32:59.705Z,100.00
2018-12-07T18:35:28.921Z,100.00
2018-12-07T18:37:57.826Z,100.00
2018-12-07T18:40:26.394Z,100.00
2018-12-07T18:42:54.476Z,100.00
2018-12-07T18:45:22.420Z,100.00
2018-12-07T18:47:50.291Z,100.00
2018-12-07T18:50:18.905Z,100.00
2018-12-07T18:52:47.188Z,100.00
2018-12-07T18:55:15.875Z,100.00
2018-12-07T18:57:44.461Z,100.00
2018-12-07T19:00:12.937Z,100.00
2018-12-07T19:02:41.446Z,100.00
2018-12-07T19:05:09.998Z,100.00
2018-12-07T19:07:38.497Z,100.00
2018-12-07T19:10:07.221Z,100.00
2018-12-07T19:12:35.679Z,100.00
2018-12-07T19:15:04.593Z,100.00
2018-12-07T19:17:33.108Z,100.00
2018-12-07T19:20:01.707Z,100.00
2018-12-07T19:22:30.353Z,100.00
2018-12-07T19:27:33.407Z,100.00
2018-12-07T19:30:01.823Z,100.00
2018-12-07T19:32:30.518Z,100.00
2018-12-07T19:34:59.088Z,100.00
2018-12-07T19:37:27.602Z,100.00
2018-12-07T19:39:56.116Z,100.00
2018-12-07T19:42:24.650Z,100.00
2018-12-07T19:44:53.292Z,100.00
2018-12-07T19:47:21.734Z,100.00
2018-12-07T19:49:50.303Z,100.00
2018-12-07T19:52:18.903Z,100.00
2018-12-07T19:54:47.460Z,100.00
2018-12-07T19:57:16.220Z,100.00
2018-12-07T19:59:44.662Z,100.00
2018-12-07T20:02:13.455Z,100.00
2018-12-07T20:04:42.022Z,100.00
2018-12-07T20:07:10.496Z,100.00
2018-12-07T20:09:38.364Z,100.00
2018-12-07T20:12:06.789Z,100.00
2018-12-07T20:14:35.353Z,100.00
2018-12-07T20:17:03.764Z,100.00
2018-12-07T20:19:32.173Z,100.00
2018-12-07T20:22:00.498Z,100.00
2018-12-07T20:24:28.807Z,100.00
2018-12-07T20:26:57.130Z,100.00
2018-12-07T20:29:25.780Z,100.00
2018-12-07T20:31:55.060Z,100.00
2018-12-07T20:34:23.513Z,100.00
2018-12-07T20:36:51.964Z,100.00
2018-12-07T20:39:20.348Z,100.00
2018-12-07T20:41:49.070Z,100.00
2018-12-07T20:44:17.085Z,100.00
2018-12-07T20:46:45.454Z,100.00
2018-12-07T20:49:13.350Z,100.00
2018-12-07T20:51:41.803Z,100.00
2018-12-07T20:54:10.150Z,100.00
2018-12-07T20:56:38.401Z,100.00
2018-12-07T20:59:06.642Z,100.00
2018-12-07T21:01:34.714Z,100.00
2018-12-07T21:04:21.490Z,100.00
2018-12-07T21:10:17.426Z,100.00
2018-12-07T21:19:43.916Z,100.00
2018-12-07T21:22:12.196Z,100.00
2018-12-07T21:24:40.926Z,100.00
2018-12-07T21:27:09.249Z,100.00
2018-12-07T21:29:37.680Z,100.00
2018-12-07T21:32:10.503Z,100.00
2018-12-07T21:34:50.817Z,100.00
2018-12-07T21:37:18.785Z,100.00
2018-12-07T21:39:47.077Z,100.00
2018-12-07T21:42:18.276Z,100.00
2018-12-07T21:44:47.335Z,100.00
2018-12-07T21:47:15.942Z,100.00
2018-12-07T21:49:44.330Z,100.00
2018-12-07T21:52:15.805Z,100.00
2018-12-07T21:54:43.781Z,100.00
2018-12-07T21:57:12.083Z,100.00
2018-12-07T21:59:40.270Z,100.00
2018-12-07T22:02:08.769Z,100.00
2018-12-07T22:04:37.539Z,100.00
2018-12-07T22:07:05.567Z,100.00
2018-12-07T22:09:34.374Z,100.00
2018-12-07T22:12:03.216Z,100.00
2018-12-07T22:14:31.510Z,100.00
2018-12-07T22:16:59.857Z,100.00
2018-12-07T22:19:28.243Z,100.00
2018-12-07T22:21:56.477Z,100.00
2018-12-07T22:24:24.614Z,100.00
2018-12-07T22:26:53.211Z,100.00
2018-12-07T22:29:21.890Z,100.00
2018-12-07T22:31:50.540Z,100.00
2018-12-07T22:34:18.733Z,100.00
2018-12-07T22:36:46.674Z,100.00
2018-12-07T22:39:15.333Z,100.00
2018-12-07T22:41:43.526Z,100.00
2018-12-07T22:44:11.723Z,100.00
2018-12-07T22:46:39.832Z,100.00
2018-12-07T22:49:07.793Z,100.00
2018-12-07T22:51:36.115Z,100.00
2018-12-07T22:54:04.037Z,100.00
2018-12-07T22:56:32.035Z,100.00
2018-12-07T22:58:59.922Z,100.00
2018-12-07T23:01:27.868Z,100.00
2018-12-07T23:03:56.429Z,100.00
2018-12-07T23:06:24.289Z,100.00
2018-12-07T23:08:52.594Z,100.00
2018-12-07T23:11:20.486Z,100.00
2018-12-07T23:13:48.371Z,100.00
2018-12-07T23:16:16.676Z,100.00
2018-12-07T23:18:44.556Z,100.00
2018-12-07T23:21:12.423Z,100.00
2018-12-07T23:23:40.737Z,100.00
2018-12-07T23:26:08.636Z,100.00
2018-12-07T23:28:36.504Z,100.00
2018-12-07T23:31:04.387Z,100.00
2018-12-07T23:33:32.264Z,100.00
2018-12-07T23:36:00.211Z,100.00
2018-12-07T23:38:28.097Z,100.00
2018-12-07T23:40:55.966Z,100.00
2018-12-07T23:43:24.080Z,100.00
2018-12-07T23:45:52.035Z,100.00
2018-12-07T23:48:19.947Z,100.00
2018-12-07T23:50:47.814Z,100.00
2018-12-07T23:53:16.110Z,100.00
2018-12-07T23:55:44.513Z,100.00
2018-12-07T23:58:12.820Z,100.00
